Time;durP1;ratioP1;P1;durP2;ratioP2;P2;SDS_P1;SDS_P2;PMS_P1;PMS_P2;Temp;Humidity;BMP_temperature;BMP_pressure;BME280_temperature;BME280_humidity;BME280_pressure;Samples;Min_cycle;Max_cycle;Signal;HPM_P1;HPM_P2
2021/09/12 00:00:22;;;;;;;6.55;4.65;;;14.50;99.90;;;;;;5053827;28;20079;-66
2021/09/12 00:02:47;;;;;;;5.47;4.80;;;14.40;99.90;;;;;;5051482;28;20021;-66
2021/09/12 00:05:13;;;;;;;6.13;4.72;;;14.40;99.90;;;;;;5052404;28;20031;-66
2021/09/12 00:07:38;;;;;;;5.15;4.45;;;14.40;99.90;;;;;;5053088;28;20074;-66
2021/09/12 00:10:05;;;;;;;9.25;4.63;;;14.40;99.90;;;;;;5051304;28;20814;-66
2021/09/12 00:12:31;;;;;;;5.07;4.18;;;14.50;99.90;;;;;;5052558;28;20045;-65
2021/09/12 00:14:56;;;;;;;7.38;4.55;;;14.50;99.90;;;;;;5051690;28;20036;-66
2021/09/12 00:17:22;;;;;;;9.00;4.13;;;14.50;99.90;;;;;;5051472;28;20036;-65
2021/09/12 00:19:48;;;;;;;4.05;3.65;;;14.50;99.90;;;;;;5050916;28;20108;-66
2021/09/12 00:22:13;;;;;;;4.13;3.60;;;14.50;99.90;;;;;;5052877;28;20025;-65
2021/09/12 00:24:39;;;;;;;4.45;4.05;;;14.50;99.90;;;;;;5049476;28;20528;-65
2021/09/12 00:27:05;;;;;;;4.78;3.92;;;14.50;99.90;;;;;;5052191;28;20107;-65
2021/09/12 00:29:30;;;;;;;4.80;3.83;;;14.50;99.90;;;;;;5052280;28;20033;-65
2021/09/12 00:31:56;;;;;;;4.07;3.63;;;14.50;99.90;;;;;;5050701;28;20025;-66
2021/09/12 00:34:22;;;;;;;6.57;3.83;;;14.50;99.90;;;;;;5052690;28;20146;-66
2021/09/12 00:36:47;;;;;;;4.78;3.72;;;14.50;99.90;;;;;;5052121;28;20071;-66
2021/09/12 00:39:13;;;;;;;4.35;3.70;;;14.40;99.90;;;;;;5050917;28;20383;-66
2021/09/12 00:41:44;;;;;;;4.22;3.40;;;14.40;99.90;;;;;;5052094;28;20406;-65
2021/09/12 00:44:12;;;;;;;6.20;4.05;;;14.40;99.90;;;;;;5051621;28;20025;-66
2021/09/12 00:46:40;;;;;;;4.25;3.67;;;14.30;99.90;;;;;;5052464;28;20029;-66
2021/09/12 00:49:06;;;;;;;9.05;3.75;;;14.30;99.90;;;;;;5051803;28;20028;-65
2021/09/12 00:51:32;;;;;;;6.60;3.75;;;14.30;99.90;;;;;;5052509;28;20033;-66
2021/09/12 00:53:58;;;;;;;4.90;4.43;;;14.30;99.90;;;;;;5051370;28;20107;-66
2021/09/12 00:56:28;;;;;;;6.25;3.83;;;14.20;99.90;;;;;;5052022;28;20025;-66
2021/09/12 00:58:59;;;;;;;5.00;4.10;;;14.30;99.90;;;;;;5051064;28;20043;-65
2021/09/12 01:01:27;;;;;;;4.65;3.80;;;14.30;99.90;;;;;;5052003;28;20036;-64
2021/09/12 01:03:53;;;;;;;3.97;3.60;;;14.20;99.90;;;;;;5051051;28;20025;-65
2021/09/12 01:06:20;;;;;;;4.50;4.10;;;14.20;99.90;;;;;;5052319;28;20036;-66
2021/09/12 01:08:46;;;;;;;6.30;4.07;;;14.20;99.90;;;;;;5051814;28;20025;-65
2021/09/12 01:11:11;;;;;;;7.90;4.43;;;14.10;99.90;;;;;;5050754;28;20040;-65
2021/09/12 01:13:39;;;;;;;4.07;3.65;;;14.10;99.90;;;;;;5051969;28;20039;-66
2021/09/12 01:16:12;;;;;;;4.20;3.70;;;14.00;99.90;;;;;;5050054;28;20048;-66
2021/09/12 01:18:38;;;;;;;4.53;3.90;;;14.00;99.90;;;;;;5050584;28;20577;-66
2021/09/12 01:21:04;;;;;;;4.00;3.70;;;14.00;99.90;;;;;;5050534;28;20120;-65
2021/09/12 01:23:29;;;;;;;5.05;3.67;;;14.00;99.90;;;;;;5051529;28;20171;-66
2021/09/12 01:25:56;;;;;;;4.80;4.13;;;14.00;99.90;;;;;;5051420;28;20071;-64
2021/09/12 01:28:22;;;;;;;6.30;4.43;;;13.90;99.90;;;;;;5051545;28;20036;-64
2021/09/12 01:30:48;;;;;;;7.78;4.25;;;13.90;99.90;;;;;;5051430;28;20036;-64
2021/09/12 01:33:13;;;;;;;4.13;3.65;;;13.90;99.90;;;;;;5051227;28;20489;-64
2021/09/12 01:35:39;;;;;;;5.18;4.50;;;13.90;99.90;;;;;;5051603;28;20504;-64
2021/09/12 01:38:05;;;;;;;5.15;3.95;;;13.80;99.90;;;;;;5050997;28;20374;-64
2021/09/12 01:40:30;;;;;;;5.80;4.63;;;13.80;99.90;;;;;;5051236;28;20493;-64
2021/09/12 01:42:58;;;;;;;4.97;4.03;;;13.80;99.90;;;;;;5050921;28;20537;-64
2021/09/12 01:45:24;;;;;;;7.43;4.10;;;13.80;99.90;;;;;;5051478;28;20021;-64
2021/09/12 01:47:49;;;;;;;6.38;3.90;;;13.80;99.90;;;;;;5051100;28;20112;-64
2021/09/12 01:50:16;;;;;;;7.30;4.20;;;13.80;99.90;;;;;;5051165;28;20040;-64
2021/09/12 01:52:42;;;;;;;5.15;4.05;;;13.80;99.90;;;;;;5051461;28;20498;-64
2021/09/12 01:55:08;;;;;;;4.88;4.13;;;13.80;99.90;;;;;;5050714;28;20060;-65
2021/09/12 01:57:34;;;;;;;6.03;4.07;;;13.70;99.90;;;;;;5051698;28;20031;-65
2021/09/12 02:00:00;;;;;;;5.38;3.95;;;13.70;99.90;;;;;;5050549;28;20509;-64
2021/09/12 02:02:26;;;;;;;5.47;3.97;;;13.80;99.90;;;;;;5051374;28;20118;-64
2021/09/12 02:04:51;;;;;;;4.70;4.15;;;13.70;99.90;;;;;;5051454;28;20112;-64
2021/09/12 02:07:17;;;;;;;5.30;4.03;;;13.70;99.90;;;;;;5051207;28;20032;-64
2021/09/12 02:09:42;;;;;;;4.50;4.05;;;13.70;99.90;;;;;;5051145;28;20084;-64
2021/09/12 02:12:08;;;;;;;4.90;4.30;;;13.60;99.90;;;;;;5050691;28;20095;-64
2021/09/12 02:14:34;;;;;;;6.10;4.25;;;13.60;99.90;;;;;;5051125;28;20025;-64
2021/09/12 02:16:59;;;;;;;4.28;3.90;;;13.50;99.90;;;;;;5053490;28;20060;-65
2021/09/12 02:19:25;;;;;;;4.78;4.13;;;13.50;99.90;;;;;;5055063;28;20059;-64
2021/09/12 02:21:51;;;;;;;5.07;3.92;;;13.50;99.90;;;;;;5054386;28;20466;-64
2021/09/12 02:24:16;;;;;;;4.43;4.03;;;13.40;99.90;;;;;;5054713;28;20459;-64
2021/09/12 02:26:42;;;;;;;5.15;4.38;;;13.40;99.90;;;;;;5055122;28;20032;-64
2021/09/12 02:29:07;;;;;;;5.82;4.40;;;13.40;99.90;;;;;;5054857;28;20021;-64
2021/09/12 02:31:33;;;;;;;4.18;3.78;;;13.40;99.90;;;;;;5054883;28;20474;-64
2021/09/12 02:33:59;;;;;;;4.53;4.03;;;13.30;99.90;;;;;;5054876;28;20078;-64
2021/09/12 02:36:25;;;;;;;4.88;4.38;;;13.30;99.90;;;;;;5054974;28;20021;-64
2021/09/12 02:38:50;;;;;;;4.93;4.43;;;13.30;99.90;;;;;;5054676;28;20074;-64
2021/09/12 02:41:16;;;;;;;5.28;4.60;;;13.30;99.90;;;;;;5054558;28;20470;-64
2021/09/12 02:43:42;;;;;;;5.82;4.85;;;13.30;99.90;;;;;;5054890;28;20078;-64
2021/09/12 02:46:08;;;;;;;5.75;4.40;;;13.30;99.90;;;;;;5053500;28;20024;-64
2021/09/12 02:48:33;;;;;;;6.00;4.38;;;13.30;99.90;;;;;;5053794;28;20025;-65
2021/09/12 02:50:59;;;;;;;6.90;4.70;;;13.30;99.90;;;;;;5053065;28;20118;-64
2021/09/12 02:53:25;;;;;;;5.47;3.97;;;13.30;99.90;;;;;;5053366;28;20017;-64
2021/09/12 02:55:50;;;;;;;5.85;4.30;;;13.20;99.90;;;;;;5053136;28;20469;-64
2021/09/12 02:58:16;;;;;;;4.90;4.50;;;13.20;99.90;;;;;;5053672;28;20028;-64
2021/09/12 03:00:41;;;;;;;4.60;4.18;;;13.10;99.90;;;;;;5053155;28;20025;-65
2021/09/12 03:03:07;;;;;;;5.22;4.30;;;13.10;99.90;;;;;;5052932;28;20025;-64
2021/09/12 03:05:33;;;;;;;6.45;4.53;;;13.10;99.90;;;;;;5053372;28;20450;-64
2021/09/12 03:07:59;;;;;;;6.47;5.10;;;13.00;99.90;;;;;;5051986;28;20024;-64
2021/09/12 03:10:25;;;;;;;6.38;4.80;;;13.00;99.90;;;;;;5052438;28;20036;-64
2021/09/12 03:12:51;;;;;;;6.13;5.15;;;13.00;99.90;;;;;;5052898;28;20033;-64
2021/09/12 03:15:16;;;;;;;6.07;4.90;;;13.00;99.90;;;;;;5051823;28;20027;-64
2021/09/12 03:17:43;;;;;;;6.72;4.35;;;13.00;99.90;;;;;;5052504;28;20056;-64
2021/09/12 03:20:09;;;;;;;6.43;4.82;;;13.00;99.90;;;;;;5053192;28;20036;-64
2021/09/12 03:22:35;;;;;;;5.18;4.50;;;13.00;99.90;;;;;;5054792;28;20033;-64
2021/09/12 03:25:02;;;;;;;5.80;4.95;;;13.00;99.90;;;;;;5053528;28;20451;-64
2021/09/12 03:27:28;;;;;;;5.28;4.72;;;12.90;99.90;;;;;;5054374;28;20093;-64
2021/09/12 03:29:53;;;;;;;5.28;4.78;;;12.90;99.90;;;;;;5053597;28;20020;-64
2021/09/12 03:32:19;;;;;;;6.25;4.70;;;12.90;99.90;;;;;;5054217;28;20048;-64
2021/09/12 03:34:45;;;;;;;5.50;4.20;;;12.90;99.90;;;;;;5054079;28;20029;-64
2021/09/12 03:37:10;;;;;;;4.70;4.30;;;12.90;99.90;;;;;;5053158;28;20255;-64
2021/09/12 03:39:36;;;;;;;5.35;4.90;;;12.80;99.90;;;;;;5054105;28;20028;-64
2021/09/12 03:42:02;;;;;;;6.43;5.00;;;12.90;99.90;;;;;;5053311;28;20064;-64
2021/09/12 03:44:28;;;;;;;4.80;4.38;;;12.80;99.90;;;;;;5054089;28;20040;-64
2021/09/12 03:46:53;;;;;;;4.97;4.50;;;12.80;99.90;;;;;;5053100;28;20022;-64
2021/09/12 03:49:19;;;;;;;4.95;4.47;;;12.80;99.90;;;;;;5053873;28;20036;-64
2021/09/12 03:51:45;;;;;;;6.45;4.63;;;12.70;99.90;;;;;;5053888;28;20458;-64
2021/09/12 03:54:10;;;;;;;5.03;4.53;;;12.70;99.90;;;;;;5053193;28;20021;-64
2021/09/12 03:56:36;;;;;;;6.50;4.50;;;12.70;99.90;;;;;;5053650;28;20021;-64
2021/09/12 03:59:02;;;;;;;5.22;4.68;;;12.70;99.90;;;;;;5053437;28;20024;-64
2021/09/12 04:01:27;;;;;;;4.85;4.35;;;12.70;99.90;;;;;;5053619;28;20098;-64
2021/09/12 04:03:53;;;;;;;4.97;4.47;;;12.70;99.90;;;;;;5052985;28;20025;-64
2021/09/12 04:06:18;;;;;;;5.38;4.85;;;12.70;99.90;;;;;;5053375;28;20090;-64
2021/09/12 04:08:44;;;;;;;5.55;4.80;;;12.70;99.90;;;;;;5053414;28;20090;-64
2021/09/12 04:11:10;;;;;;;6.78;4.45;;;12.70;99.90;;;;;;5053004;28;20033;-64
2021/09/12 04:13:35;;;;;;;8.35;4.95;;;12.70;99.90;;;;;;5053518;28;20114;-64
2021/09/12 04:16:01;;;;;;;5.90;4.78;;;12.60;99.90;;;;;;5052758;28;20100;-64
2021/09/12 04:18:26;;;;;;;4.70;4.30;;;12.60;99.90;;;;;;5052892;28;20168;-64
2021/09/12 04:20:52;;;;;;;5.15;4.50;;;12.60;99.90;;;;;;5053260;28;20033;-65
2021/09/12 04:23:18;;;;;;;4.60;4.20;;;12.60;99.90;;;;;;5053498;28;20021;-64
2021/09/12 04:25:43;;;;;;;5.03;4.53;;;12.60;99.90;;;;;;5053562;28;20029;-64
2021/09/12 04:28:09;;;;;;;4.65;4.22;;;12.60;99.90;;;;;;5052697;28;20421;-65
2021/09/12 04:30:35;;;;;;;5.32;4.22;;;12.60;99.90;;;;;;5053046;28;20109;-64
2021/09/12 04:33:00;;;;;;;6.40;5.57;;;12.50;99.90;;;;;;5052275;28;20078;-64
2021/09/12 04:35:26;;;;;;;4.78;4.30;;;12.50;99.90;;;;;;5053073;28;20025;-64
2021/09/12 04:37:52;;;;;;;5.20;4.68;;;12.50;99.90;;;;;;5052607;28;20025;-65
2021/09/12 04:40:17;;;;;;;5.45;4.90;;;12.50;99.90;;;;;;5052205;28;20037;-64
2021/09/12 04:42:43;;;;;;;6.05;5.47;;;12.40;99.90;;;;;;5052822;28;20140;-64
2021/09/12 04:45:09;;;;;;;6.25;4.90;;;12.40;99.90;;;;;;5052195;28;20112;-63
2021/09/12 04:47:34;;;;;;;8.68;4.80;;;12.40;99.90;;;;;;5052753;28;20028;-64
2021/09/12 04:50:00;;;;;;;5.88;5.00;;;12.40;99.90;;;;;;5051835;28;20060;-64
2021/09/12 04:52:27;;;;;;;5.72;5.22;;;12.40;99.90;;;;;;5052709;28;20107;-65
2021/09/12 04:54:52;;;;;;;6.68;4.95;;;12.40;99.90;;;;;;5052819;28;20099;-64
2021/09/12 04:57:18;;;;;;;5.32;4.82;;;12.40;99.90;;;;;;5052121;28;20439;-64
2021/09/12 04:59:43;;;;;;;6.55;5.75;;;12.40;99.90;;;;;;5052575;28;20402;-64
2021/09/12 05:02:09;;;;;;;8.77;5.38;;;12.40;99.90;;;;;;5051918;28;20474;-64
2021/09/12 05:04:35;;;;;;;5.72;5.22;;;12.40;99.90;;;;;;5052402;28;20029;-64
2021/09/12 05:07:00;;;;;;;6.25;5.25;;;12.30;99.90;;;;;;5051564;28;20036;-64
2021/09/12 05:09:26;;;;;;;6.75;5.35;;;12.30;99.90;;;;;;5052340;28;20033;-64
2021/09/12 05:11:52;;;;;;;5.70;5.18;;;12.40;99.90;;;;;;5052615;28;20376;-65
2021/09/12 05:14:17;;;;;;;6.72;5.15;;;12.30;99.90;;;;;;5051875;28;20394;-64
2021/09/12 05:16:43;;;;;;;7.68;5.25;;;12.40;99.90;;;;;;5052249;28;20025;-65
2021/09/12 05:19:09;;;;;;;8.23;5.72;;;12.40;99.90;;;;;;5051518;28;20150;-65
2021/09/12 05:21:34;;;;;;;7.93;6.13;;;12.40;99.90;;;;;;5052389;28;20033;-64
2021/09/12 05:24:00;;;;;;;7.30;5.53;;;12.40;99.90;;;;;;5050570;28;20421;-64
2021/09/12 05:26:25;;;;;;;6.38;5.30;;;12.50;99.90;;;;;;5052558;28;20029;-64
2021/09/12 05:28:51;;;;;;;5.32;4.78;;;12.50;99.90;;;;;;5052412;28;20033;-64
2021/09/12 05:31:16;;;;;;;5.53;5.03;;;12.50;99.90;;;;;;5051662;28;20029;-65
2021/09/12 05:33:42;;;;;;;5.40;4.90;;;12.50;99.90;;;;;;5052126;28;20466;-64
2021/09/12 05:36:08;;;;;;;5.43;4.88;;;12.60;99.90;;;;;;5051524;28;20481;-64
2021/09/12 05:38:33;;;;;;;6.10;5.50;;;12.60;99.90;;;;;;5052103;28;20025;-65
2021/09/12 05:40:59;;;;;;;7.35;5.00;;;12.60;99.90;;;;;;5051742;28;20044;-64
2021/09/12 05:43:25;;;;;;;8.55;4.85;;;12.60;99.90;;;;;;5051599;28;20052;-64
2021/09/12 05:45:50;;;;;;;7.05;5.00;;;12.70;99.90;;;;;;5051963;28;20032;-64
2021/09/12 05:48:16;;;;;;;6.15;4.50;;;12.70;99.90;;;;;;5051421;28;20037;-64
2021/09/12 05:50:42;;;;;;;4.93;4.43;;;12.80;99.90;;;;;;5053189;28;20473;-64
2021/09/12 05:53:09;;;;;;;5.65;4.20;;;12.80;99.90;;;;;;5055327;28;20029;-65
2021/09/12 05:55:36;;;;;;;5.63;5.03;;;12.90;99.90;;;;;;5056193;28;20386;-64
2021/09/12 05:58:02;;;;;;;5.03;4.53;;;12.90;99.90;;;;;;5055432;28;20029;-64
2021/09/12 06:00:28;;;;;;;5.43;4.72;;;13.00;99.90;;;;;;5055900;28;20029;-64
2021/09/12 06:02:53;;;;;;;5.63;4.63;;;13.10;99.90;;;;;;5055486;28;20029;-64
2021/09/12 06:05:19;;;;;;;7.13;5.20;;;13.10;99.90;;;;;;5055088;28;20394;-64
2021/09/12 06:07:44;;;;;;;5.57;4.97;;;13.20;99.90;;;;;;5056016;28;20024;-64
2021/09/12 06:10:11;;;;;;;7.35;4.95;;;13.30;99.90;;;;;;5055144;28;20032;-64
2021/09/12 06:12:37;;;;;;;6.65;5.95;;;13.30;99.90;;;;;;5055684;28;20029;-64
2021/09/12 06:15:03;;;;;;;7.13;5.75;;;13.40;99.90;;;;;;5055145;28;20025;-64
2021/09/12 06:17:29;;;;;;;7.32;5.78;;;13.60;99.90;;;;;;5055638;28;20474;-65
2021/09/12 06:19:55;;;;;;;9.23;5.63;;;13.70;99.90;;;;;;5055893;28;20120;-65
2021/09/12 06:22:20;;;;;;;7.60;5.55;;;13.70;99.90;;;;;;5055055;28;20021;-63
2021/09/12 06:24:46;;;;;;;6.47;5.82;;;13.90;99.90;;;;;;5055215;28;20386;-65
2021/09/12 06:27:12;;;;;;;8.85;5.43;;;14.00;99.90;;;;;;5054799;28;20025;-65
2021/09/12 06:29:38;;;;;;;5.78;5.15;;;14.10;99.90;;;;;;5055363;28;20029;-65
2021/09/12 06:32:04;;;;;;;8.02;5.90;;;14.20;99.90;;;;;;5055224;28;20035;-65
2021/09/12 06:34:30;;;;;;;6.25;5.40;;;14.30;99.90;;;;;;5055279;28;20025;-65
2021/09/12 06:36:56;;;;;;;6.15;5.13;;;14.40;99.90;;;;;;5055605;28;20534;-65
2021/09/12 06:39:23;;;;;;;5.88;4.95;;;14.50;99.90;;;;;;5054204;28;20120;-65
2021/09/12 06:41:49;;;;;;;7.00;5.00;;;14.70;99.90;;;;;;5055122;28;20150;-65
2021/09/12 06:44:16;;;;;;;5.70;4.63;;;14.80;99.90;;;;;;5054240;28;20052;-65
2021/09/12 06:46:42;;;;;;;5.93;4.40;;;14.90;99.90;;;;;;5054695;28;20033;-65
2021/09/12 06:49:07;;;;;;;4.32;3.92;;;15.10;99.90;;;;;;5054202;28;20094;-65
2021/09/12 06:51:33;;;;;;;4.10;3.70;;;15.30;99.90;;;;;;5054036;28;20033;-65
2021/09/12 06:53:59;;;;;;;4.78;4.28;;;15.30;99.90;;;;;;5053050;28;20029;-65
2021/09/12 06:56:24;;;;;;;8.07;4.90;;;15.40;99.90;;;;;;5052567;28;20462;-66
2021/09/12 06:58:50;;;;;;;6.95;5.85;;;15.50;99.90;;;;;;5052883;28;20025;-66
2021/09/12 07:01:16;;;;;;;6.90;6.20;;;15.60;99.90;;;;;;5051255;28;20024;-65
2021/09/12 07:03:42;;;;;;;10.07;6.93;;;15.70;99.90;;;;;;5053026;28;20031;-65
2021/09/12 07:06:08;;;;;;;14.52;6.82;;;15.80;99.90;;;;;;5052596;28;20096;-65
2021/09/12 07:08:34;;;;;;;8.50;6.10;;;15.90;99.90;;;;;;5052905;28;20048;-65
2021/09/12 07:10:59;;;;;;;6.45;5.85;;;16.00;99.90;;;;;;5052166;28;20065;-65
2021/09/12 07:13:26;;;;;;;7.93;7.13;;;16.10;99.90;;;;;;5051587;28;20029;-65
2021/09/12 07:15:52;;;;;;;9.27;6.30;;;16.10;99.90;;;;;;5052053;28;20029;-67
2021/09/12 07:18:17;;;;;;;8.23;6.20;;;16.20;99.90;;;;;;5051160;28;20036;-66
2021/09/12 07:20:43;;;;;;;12.70;6.75;;;16.40;99.90;;;;;;5051568;28;20463;-66
2021/09/12 07:23:09;;;;;;;6.50;5.80;;;16.40;99.90;;;;;;5050714;28;20414;-66
2021/09/12 07:25:34;;;;;;;6.82;4.55;;;16.50;99.90;;;;;;5048005;28;20467;-66
2021/09/12 07:28:00;;;;;;;9.15;5.40;;;16.60;99.90;;;;;;5053069;28;20044;-66
2021/09/12 07:30:26;;;;;;;7.38;5.53;;;16.70;99.90;;;;;;5051933;28;20454;-66
2021/09/12 07:32:53;;;;;;;6.18;5.47;;;16.70;99.90;;;;;;5051585;28;20021;-64
2021/09/12 07:35:19;;;;;;;8.02;5.75;;;16.80;99.90;;;;;;5050624;28;20033;-65
2021/09/12 07:37:44;;;;;;;7.30;5.07;;;16.80;99.90;;;;;;5048988;28;20036;-65
2021/09/12 07:40:10;;;;;;;5.70;5.10;;;16.90;99.90;;;;;;5050449;28;20037;-66
2021/09/12 07:42:36;;;;;;;6.97;5.40;;;16.90;99.90;;;;;;5051423;28;20128;-64
2021/09/12 07:45:02;;;;;;;5.90;5.30;;;16.90;99.90;;;;;;5050946;28;20561;-66
2021/09/12 07:47:29;;;;;;;8.00;5.45;;;17.00;99.90;;;;;;5051511;28;20033;-66
2021/09/12 07:49:55;;;;;;;6.80;4.68;;;17.10;99.90;;;;;;5051319;28;20032;-64
2021/09/12 07:52:21;;;;;;;5.40;4.75;;;17.20;99.90;;;;;;5050112;28;20021;-64
2021/09/12 07:54:47;;;;;;;5.60;4.40;;;17.20;99.90;;;;;;5052584;28;20021;-64
2021/09/12 07:57:13;;;;;;;6.95;4.80;;;17.20;99.90;;;;;;5050356;28;20386;-66
2021/09/12 07:59:39;;;;;;;4.80;4.32;;;17.40;99.90;;;;;;5051266;28;20474;-63
2021/09/12 08:02:05;;;;;;;6.82;4.15;;;17.40;99.90;;;;;;5051024;28;20024;-66
2021/09/12 08:04:30;;;;;;;5.10;4.65;;;17.40;99.90;;;;;;5051354;28;20017;-65
2021/09/12 08:06:56;;;;;;;6.60;4.15;;;17.60;99.90;;;;;;5050701;28;20029;-64
2021/09/12 08:09:22;;;;;;;4.35;3.17;;;17.70;99.90;;;;;;5049489;28;20082;-65
2021/09/12 08:11:47;;;;;;;4.22;3.83;;;17.80;99.90;;;;;;5050584;28;20033;-64
2021/09/12 08:14:13;;;;;;;3.95;3.60;;;18.00;99.90;;;;;;5048913;28;20021;-64
2021/09/12 08:16:39;;;;;;;5.97;3.38;;;18.10;99.90;;;;;;5050721;28;20035;-65
2021/09/12 08:19:05;;;;;;;4.15;3.75;;;18.20;99.90;;;;;;5048691;28;20458;-65
2021/09/12 08:21:31;;;;;;;4.20;3.80;;;18.30;99.90;;;;;;5050893;28;20033;-64
2021/09/12 08:23:56;;;;;;;3.50;3.20;;;18.40;99.90;;;;;;5049639;28;20021;-66
2021/09/12 08:26:22;;;;;;;4.13;3.75;;;18.40;99.90;;;;;;5049497;28;20024;-65
2021/09/12 08:28:48;;;;;;;3.72;3.42;;;18.50;99.90;;;;;;5050819;28;20029;-67
2021/09/12 08:31:14;;;;;;;4.15;3.75;;;18.50;99.90;;;;;;5050996;28;20420;-67
2021/09/12 08:33:40;;;;;;;3.75;3.40;;;18.50;99.90;;;;;;5051624;28;20028;-65
2021/09/12 08:36:06;;;;;;;4.07;3.67;;;18.50;99.90;;;;;;5050995;28;20071;-64
2021/09/12 08:38:31;;;;;;;7.25;3.95;;;18.50;99.90;;;;;;5051044;28;20104;-67
2021/09/12 08:40:59;;;;;;;3.75;3.45;;;18.60;99.90;;;;;;5050870;28;20478;-65
2021/09/12 08:43:26;;;;;;;5.13;3.72;;;18.60;99.90;;;;;;5051401;28;20053;-65
2021/09/12 08:45:52;;;;;;;3.85;3.50;;;18.70;99.90;;;;;;5052584;28;20033;-64
2021/09/12 08:48:18;;;;;;;3.60;3.28;;;18.70;99.90;;;;;;5052505;28;20130;-64
2021/09/12 08:50:45;;;;;;;3.40;3.10;;;18.80;99.90;;;;;;5052626;28;20481;-68
2021/09/12 08:53:11;;;;;;;4.10;3.05;;;18.90;99.90;;;;;;5051844;28;20470;-66
2021/09/12 08:55:36;;;;;;;3.70;3.40;;;19.00;99.90;;;;;;5067778;28;20028;-64
2021/09/12 08:58:04;;;;;;;3.70;3.42;;;19.10;99.90;;;;;;5071961;28;20103;-67
2021/09/12 09:00:30;;;;;;;4.13;3.17;;;19.20;99.90;;;;;;5072323;28;20136;-65
2021/09/12 09:02:59;;;;;;;5.22;3.28;;;19.30;99.90;;;;;;5072480;28;20025;-65
2021/09/12 09:05:34;;;;;;;3.25;2.95;;;19.40;99.90;;;;;;5071927;28;20028;-67
2021/09/12 09:08:06;;;;;;;4.22;3.15;;;19.50;99.90;;;;;;5071418;28;20024;-69
2021/09/12 09:10:48;;;;;;;4.00;3.05;;;19.60;99.90;;;;;;5063991;28;20040;-69
2021/09/12 09:13:35;;;;;;;3.20;2.90;;;19.80;99.90;;;;;;5051603;28;20025;-67
2021/09/12 09:16:08;;;;;;;3.30;3.00;;;19.80;99.90;;;;;;5051690;28;20036;-67
2021/09/12 09:18:36;;;;;;;4.20;3.15;;;19.80;99.90;;;;;;5052697;28;20029;-67
2021/09/12 09:21:23;;;;;;;3.88;3.15;;;19.70;99.90;;;;;;5050887;28;20082;-72
2021/09/12 09:24:03;;;;;;;3.90;3.42;;;19.70;99.90;;;;;;5052297;28;20063;-71
2021/09/12 09:26:29;;;;;;;5.50;2.85;;;19.60;99.90;;;;;;5052210;28;20032;-71
2021/09/12 09:28:55;;;;;;;2.38;2.17;;;19.50;99.90;;;;;;5052255;28;20466;-72
2021/09/12 09:31:25;;;;;;;4.20;3.20;;;19.40;99.90;;;;;;5051602;28;20033;-71
2021/09/12 09:33:50;;;;;;;;;;;19.50;99.90;;;;;;5052641;28;20048;-73
2021/09/12 09:36:18;;;;;;;2.65;2.35;;;19.60;99.90;;;;;;5051880;28;19905;-72
2021/09/12 09:38:47;;;;;;;3.65;3.08;;;19.80;99.90;;;;;;5052216;28;20151;-67
2021/09/12 09:41:17;;;;;;;2.65;2.40;;;20.10;99.90;;;;;;5046225;28;20484;-67
2021/09/12 09:43:44;;;;;;;2.30;2.10;;;20.20;99.90;;;;;;5053088;28;20398;-68
2021/09/12 09:46:30;;;;;;;4.22;2.42;;;20.40;99.90;;;;;;5052505;28;20025;-69
2021/09/12 09:49:16;;;;;;;2.35;2.15;;;20.50;99.90;;;;;;5052141;28;20100;-68
2021/09/12 09:51:42;;;;;;;2.95;2.70;;;20.60;99.90;;;;;;5051772;28;20433;-69
2021/09/12 09:54:08;;;;;;;2.40;2.20;;;20.70;99.90;;;;;;5051182;28;20029;-68
2021/09/12 09:56:34;;;;;;;2.90;2.40;;;20.80;99.90;;;;;;5051911;28;20036;-69
2021/09/12 09:59:00;;;;;;;6.05;2.17;;;20.90;99.90;;;;;;5052008;28;20029;-68
2021/09/12 10:01:27;;;;;;;4.10;1.90;;;21.00;99.90;;;;;;5051201;28;20090;-69
2021/09/12 10:03:53;;;;;;;2.33;2.00;;;21.10;98.80;;;;;;5052346;28;20025;-69
2021/09/12 10:06:19;;;;;;;4.15;2.60;;;21.20;98.40;;;;;;5051111;28;20056;-67
2021/09/12 10:08:45;;;;;;;2.65;2.00;;;21.40;97.40;;;;;;5051953;28;20154;-68
2021/09/12 10:11:13;;;;;;;3.20;2.00;;;21.60;95.70;;;;;;5062282;28;20455;-68
2021/09/12 10:13:39;;;;;;;2.35;2.15;;;21.70;93.70;;;;;;5071465;28;20032;-68
2021/09/12 10:16:07;;;;;;;1.85;1.70;;;21.70;93.00;;;;;;5071211;28;20032;-68
2021/09/12 10:18:33;;;;;;;2.53;1.73;;;21.70;93.00;;;;;;5071681;28;20385;-68
2021/09/12 10:21:24;;;;;;;2.63;1.88;;;21.80;92.30;;;;;;5071761;28;20033;-68
2021/09/12 10:24:16;;;;;;;2.63;1.67;;;21.90;92.00;;;;;;5070402;28;20029;-65
2021/09/12 10:26:42;;;;;;;2.05;1.75;;;21.90;91.50;;;;;;5070647;28;20170;-66
2021/09/12 10:29:52;;;;;;;2.63;1.70;;;21.90;91.00;;;;;;5071144;28;20056;-65
2021/09/12 10:32:32;;;;;;;3.05;1.58;;;22.10;90.80;;;;;;5070793;28;20559;-68
2021/09/12 10:35:20;;;;;;;3.50;1.83;;;22.30;87.80;;;;;;5071429;28;20111;-68
2021/09/12 10:38:01;;;;;;;1.65;1.48;;;22.40;87.00;;;;;;5074039;28;20478;-68
2021/09/12 10:40:48;;;;;;;2.05;1.38;;;22.40;87.70;;;;;;5067554;28;20025;-68
2021/09/12 10:43:26;;;;;;;3.00;1.77;;;22.60;87.20;;;;;;5053867;28;20099;-68
2021/09/12 10:46:07;;;;;;;5.15;2.15;;;22.80;82.90;;;;;;5055015;28;20017;-68
2021/09/12 10:48:37;;;;;;;2.08;1.83;;;23.00;81.80;;;;;;5055030;28;20025;-68
2021/09/12 10:51:26;;;;;;;2.20;1.50;;;23.00;83.10;;;;;;5055152;28;20054;-68
2021/09/12 10:53:55;;;;;;;2.80;1.60;;;23.00;81.50;;;;;;5054987;28;20024;-68
2021/09/12 10:56:20;;;;;;;2.10;1.70;;;23.00;80.00;;;;;;5054228;28;20425;-68
2021/09/12 10:58:52;;;;;;;2.30;1.40;;;23.10;79.40;;;;;;5054663;28;20025;-68
2021/09/12 11:01:36;;;;;;;3.28;2.20;;;23.30;77.00;;;;;;5054226;28;20107;-68
2021/09/12 11:04:03;;;;;;;2.85;1.83;;;23.30;76.70;;;;;;5054690;28;20086;-68
2021/09/12 11:06:34;;;;;;;1.38;1.27;;;23.30;77.40;;;;;;5053733;28;20053;-68
2021/09/12 11:09:01;;;;;;;3.65;2.13;;;23.40;77.30;;;;;;5053282;28;20021;-69
2021/09/12 11:11:27;;;;;;;1.90;1.65;;;23.50;76.90;;;;;;5067335;28;20065;-68
2021/09/12 11:13:54;;;;;;;1.85;1.75;;;23.60;77.50;;;;;;5074126;28;20031;-68
2021/09/12 11:16:22;;;;;;;1.52;1.42;;;23.80;75.60;;;;;;5074207;28;20039;-68
2021/09/12 11:18:49;;;;;;;3.20;1.73;;;24.10;76.10;;;;;;5074341;28;20125;-69
2021/09/12 11:21:36;;;;;;;1.50;1.40;;;24.20;73.50;;;;;;5073699;28;20029;-68
2021/09/12 11:24:22;;;;;;;2.33;1.60;;;24.40;73.00;;;;;;5074220;28;20036;-69
2021/09/12 11:26:54;;;;;;;3.83;1.55;;;24.60;71.80;;;;;;5074425;28;20031;-68
2021/09/12 11:29:25;;;;;;;1.83;1.40;;;24.60;71.20;;;;;;5073470;28;20111;-68
2021/09/12 11:32:05;;;;;;;1.88;1.70;;;24.60;71.30;;;;;;5074194;28;20040;-69
2021/09/12 11:34:32;;;;;;;2.30;1.20;;;24.60;70.40;;;;;;5073885;28;20390;-68
2021/09/12 11:37:10;;;;;;;2.50;2.00;;;24.90;70.00;;;;;;5074035;28;20083;-69
2021/09/12 11:39:38;;;;;;;2.28;1.70;;;25.30;67.80;;;;;;5074105;28;20028;-69
2021/09/12 11:42:09;;;;;;;2.45;1.40;;;25.40;66.90;;;;;;5073376;28;20061;-69
2021/09/12 11:44:51;;;;;;;3.00;1.55;;;25.40;67.70;;;;;;5073778;28;20029;-67
2021/09/12 11:47:22;;;;;;;1.75;1.60;;;25.40;67.40;;;;;;5072786;28;20100;-67
2021/09/12 11:50:03;;;;;;;1.52;1.35;;;25.60;65.80;;;;;;5072985;28;20047;-67
2021/09/12 11:52:37;;;;;;;2.80;1.73;;;25.60;65.40;;;;;;5072230;28;20031;-68
2021/09/12 11:55:21;;;;;;;2.17;1.70;;;25.50;66.00;;;;;;5073503;28;20021;-67
2021/09/12 11:58:07;;;;;;;3.72;1.67;;;25.50;65.30;;;;;;5073396;28;20491;-67
2021/09/12 12:00:45;;;;;;;2.08;1.88;;;25.70;65.50;;;;;;5073039;28;20028;-67
2021/09/12 12:03:13;;;;;;;2.72;1.40;;;25.90;65.10;;;;;;5071442;28;20504;-67
2021/09/12 12:05:41;;;;;;;3.75;1.80;;;26.00;64.20;;;;;;5073427;28;20531;-68
2021/09/12 12:08:10;;;;;;;2.03;1.63;;;26.10;63.80;;;;;;5073376;28;20020;-67
2021/09/12 12:10:38;;;;;;;2.83;1.67;;;26.30;64.00;;;;;;5071426;28;20032;-67
2021/09/12 12:13:04;;;;;;;2.22;2.03;;;26.50;62.00;;;;;;5073458;28;20083;-67
2021/09/12 12:15:31;;;;;;;1.77;1.42;;;;;;;;;;5072276;28;20028;-67
2021/09/12 12:17:57;;;;;;;2.85;1.45;;;26.40;62.40;;;;;;5063905;28;20021;-68
2021/09/12 12:20:22;;;;;;;1.88;1.23;;;26.40;63.80;;;;;;5052381;28;20033;-68
2021/09/12 12:22:48;;;;;;;1.60;1.48;;;26.70;63.00;;;;;;5052870;28;20047;-68
2021/09/12 12:25:29;;;;;;;1.83;1.50;;;26.60;62.40;;;;;;5052259;28;20028;-68
2021/09/12 12:27:55;;;;;;;4.80;1.90;;;26.30;62.30;;;;;;5052945;28;20524;-68
2021/09/12 12:30:20;;;;;;;1.40;1.35;;;26.20;62.20;;;;;;5051878;28;20478;-68
2021/09/12 12:32:47;;;;;;;2.33;1.40;;;26.10;63.60;;;;;;5052481;28;20036;-68
2021/09/12 12:35:15;;;;;;;5.88;1.70;;;26.20;62.20;;;;;;5052162;28;20029;-69
2021/09/12 12:37:42;;;;;;;2.25;1.55;;;26.20;62.40;;;;;;5052072;28;20033;-68
2021/09/12 12:40:11;;;;;;;2.28;2.10;;;26.20;62.40;;;;;;5055317;28;20031;-69
2021/09/12 12:42:44;;;;;;;2.10;1.90;;;26.50;62.30;;;;;;5072460;28;20131;-68
2021/09/12 12:45:24;;;;;;;1.80;1.70;;;26.50;61.80;;;;;;5071868;28;20020;-68
2021/09/12 12:47:53;;;;;;;2.47;1.60;;;26.40;61.70;;;;;;5066351;28;20071;-68
2021/09/12 12:50:41;;;;;;;1.63;1.50;;;26.60;62.60;;;;;;5051633;28;20029;-68